Time;durP1;ratioP1;P1;durP2;ratioP2;P2;SDS_P1;SDS_P2;PMS_P1;PMS_P2;Temp;Humidity;BMP_temperature;BMP_pressure;BME280_temperature;BME280_humidity;BME280_pressure;Samples;Min_cycle;Max_cycle;Signal;HPM_P1;HPM_P2
2021/12/15 00:04:46;;;;;;;69.60;33.60;;;;;;;3.00;89.85;99760.77;213526;1320;22642;-75
2021/12/15 00:09:57;;;;;;;60.50;32.80;;;;;;;3.03;89.92;99758.53;213989;1325;22942;-75
2021/12/15 00:15:14;;;;;;;63.70;30.80;;;;;;;3.08;89.85;99761.23;213420;1324;24281;-74
2021/12/15 00:20:29;;;;;;;68.20;32.90;;;;;;;3.08;89.76;99767.92;213489;1320;25558;-75
2021/12/15 00:25:47;;;;;;;74.50;35.20;;;;;;;3.12;89.86;99766.02;213446;1325;22650;-74
2021/12/15 00:31:05;;;;;;;84.90;38.60;;;;;;;3.07;89.55;99748.74;213628;1319;24782;-75
2021/12/15 00:36:45;;;;;;;;;;;;;;;;;;;;;
2021/12/15 00:42:16;;;;;;;85.90;41.20;;;;;;;3.00;89.55;99752.17;213577;1323;22618;-73
2021/12/15 00:47:52;;;;;;;87.90;40.50;;;;;;;2.95;89.72;99748.98;213434;1325;22600;-75
2021/12/15 00:53:33;;;;;;;90.00;40.10;;;;;;;2.93;89.57;99747.77;213504;1325;24305;-73
2021/12/15 00:59:15;;;;;;;75.10;37.00;;;;;;;2.98;89.95;99747.14;213645;1325;22756;-74
2021/12/15 01:04:52;;;;;;;;;;;;;;;2.97;89.74;99756.38;213672;1325;24352;-74
2021/12/15 01:10:01;;;;;;;82.20;35.70;;;;;;;2.97;89.99;99764.41;213638;1323;22624;-75
2021/12/15 01:20:58;;;;;;;79.50;37.70;;;;;;;3.01;90.17;99769.42;213584;1324;22653;-73
2021/12/15 01:26:37;;;;;;;;;;;;;;;;;;;;;
2021/12/15 01:32:48;;;;;;;76.50;37.50;;;;;;;3.19;90.03;99778.99;213284;1325;25501;-74
2021/12/15 01:37:59;;;;;;;64.60;33.10;;;;;;;3.20;90.08;99778.48;213161;1325;24328;-75
2021/12/15 01:43:49;;;;;;;73.30;35.60;;;;;;;3.19;89.67;99772.72;213343;1324;24292;-74
2021/12/15 01:49:38;;;;;;;63.20;33.30;;;;;;;3.17;89.67;99764.05;213251;1324;25458;-74
2021/12/15 01:55:24;;;;;;;60.80;32.50;;;;;;;3.21;89.97;99761.02;213274;1324;23053;-74
2021/12/15 02:00:47;;;;;;;60.80;33.60;;;;;;;3.22;89.77;99762.96;213083;1325;22635;-74
2021/12/15 02:06:03;;;;;;;71.30;36.30;;;;;;;3.24;90.11;99761.32;213272;1325;22623;-75
2021/12/15 02:11:24;;;;;;;67.70;34.60;;;;;;;3.30;90.21;99764.17;213386;1322;23175;-75
2021/12/15 02:16:39;;;;;;;65.20;34.00;;;;;;;3.32;89.87;99764.44;213276;1325;24442;-74
2021/12/15 02:22:00;;;;;;;55.80;31.70;;;;;;;3.32;89.82;99767.77;213458;1321;22800;-74
2021/12/15 02:27:21;;;;;;;62.30;34.70;;;;;;;3.31;89.78;99771.66;213679;1323;25232;-74
2021/12/15 02:32:45;;;;;;;62.00;33.70;;;;;;;3.31;90.09;99773.86;213740;1323;22716;-74
2021/12/15 02:38:18;;;;;;;60.40;34.00;;;;;;;3.32;89.77;99780.05;213731;1324;25448;-73
2021/12/15 02:43:58;;;;;;;60.10;33.90;;;;;;;3.33;90.05;99782.69;213723;1324;24434;-75
2021/12/15 02:49:13;;;;;;;57.50;32.60;;;;;;;3.39;90.37;99785.20;213837;1323;22600;-75
2021/12/15 02:54:26;;;;;;;57.30;32.10;;;;;;;3.41;90.37;99795.09;213593;1321;22700;-75
2021/12/15 03:00:06;;;;;;;68.30;35.80;;;;;;;3.40;90.13;99804.72;213634;1323;22695;-74
2021/12/15 03:05:51;;;;;;;64.00;36.30;;;;;;;3.41;90.03;99810.17;213705;1323;22570;-73
2021/12/15 03:16:35;;;;;;;52.20;31.40;;;;;;;3.38;89.67;99813.00;213391;1323;25378;-74
2021/12/15 03:21:50;;;;;;;56.10;32.40;;;;;;;3.40;89.79;99813.31;213521;1321;25332;-74
2021/12/15 03:27:18;;;;;;;59.90;33.60;;;;;;;3.40;89.87;99814.29;213157;1325;22655;-75
2021/12/15 03:38:54;;;;;;;57.10;32.10;;;;;;;3.43;89.72;99827.23;213235;1324;24285;-74
2021/12/15 03:44:56;;;;;;;49.70;30.40;;;;;;;3.48;89.75;99822.04;213556;1326;22574;-73
2021/12/15 03:50:46;;;;;;;57.00;29.70;;;;;;;3.53;90.07;99821.36;213719;1325;22693;-74
2021/12/15 03:56:18;;;;;;;52.80;31.20;;;;;;;3.59;89.92;99817.30;214044;1324;22590;-74
2021/12/15 04:01:24;;;;;;;48.00;30.40;;;;;;;3.64;89.91;99828.73;213439;1325;22883;-75
2021/12/15 04:06:40;;;;;;;52.10;30.50;;;;;;;3.71;89.88;99829.05;213518;1325;23160;-74
2021/12/15 04:13:03;;;;;;;54.10;31.10;;;;;;;3.75;89.78;99835.46;213274;1325;22650;-74
2021/12/15 04:18:56;;;;;;;57.50;32.30;;;;;;;3.71;89.37;99838.42;213344;1324;22596;-74
2021/12/15 04:24:35;;;;;;;55.60;31.40;;;;;;;3.71;89.42;99838.27;213636;1322;24285;-73
2021/12/15 04:30:19;;;;;;;48.60;28.80;;;;;;;3.75;89.37;99839.50;214023;1322;24320;-75
2021/12/15 04:35:53;;;;;;;51.70;31.60;;;;;;;3.70;89.08;99844.63;213414;1325;25348;-75
2021/12/15 04:40:59;;;;;;;54.30;30.60;;;;;;;3.71;89.22;99845.77;213732;1323;25335;-74
2021/12/15 04:46:20;;;;;;;53.30;32.30;;;;;;;3.61;88.65;99847.52;213600;1323;26650;-74
2021/12/15 04:52:17;;;;;;;58.60;35.00;;;;;;;3.49;88.58;99855.52;213718;1320;24241;-75
2021/12/15 04:58:10;;;;;;;53.70;31.80;;;;;;;3.40;88.52;99856.71;213465;1323;22605;-74
2021/12/15 05:03:22;;;;;;;51.20;29.70;;;;;;;3.33;88.67;99860.71;214097;1323;22581;-75
2021/12/15 05:08:37;;;;;;;56.50;31.60;;;;;;;3.30;88.88;99866.27;213883;1323;26432;-74
2021/12/15 05:13:47;;;;;;;51.00;31.40;;;;;;;3.33;89.15;99865.20;213764;1323;22603;-74
2021/12/15 05:18:51;;;;;;;52.70;30.90;;;;;;;3.42;89.37;99868.81;213656;1322;23026;-74
2021/12/15 05:24:02;;;;;;;60.10;33.40;;;;;;;3.45;89.21;99865.77;213566;1323;26594;-74
2021/12/15 05:29:19;;;;;;;78.90;43.80;;;;;;;3.44;89.18;99872.66;213843;1322;25582;-75
2021/12/15 05:34:42;;;;;;;76.10;41.80;;;;;;;3.45;89.17;99882.20;213659;1323;22526;-73
2021/12/15 05:39:59;;;;;;;78.40;42.10;;;;;;;3.47;89.14;99890.45;211753;1323;2876680;-73
2021/12/15 05:45:32;;;;;;;74.20;41.10;;;;;;;3.49;89.31;99889.70;213702;1323;26472;-74
2021/12/15 05:50:35;;;;;;;78.70;40.50;;;;;;;3.49;89.17;99900.88;213759;1323;22616;-75
2021/12/15 05:55:54;;;;;;;77.80;44.00;;;;;;;3.50;89.37;99903.27;213650;1323;22778;-75
2021/12/15 06:01:07;;;;;;;83.50;43.60;;;;;;;3.50;89.32;99904.45;213378;1325;22646;-74
2021/12/15 06:07:19;;;;;;;86.10;43.90;;;;;;;3.58;89.58;99908.12;213289;1324;22644;-74
2021/12/15 06:12:40;;;;;;;84.10;46.60;;;;;;;3.60;89.34;99908.02;213831;1322;22652;-74
2021/12/15 06:18:10;;;;;;;83.40;43.30;;;;;;;3.51;88.96;99905.22;214287;1323;24907;-74
2021/12/15 06:23:28;;;;;;;72.80;37.10;;;;;;;3.48;89.30;99908.67;213980;1322;26512;-74
2021/12/15 06:29:36;;;;;;;;;;;;;;;;;;;;;
2021/12/15 06:40:57;;;;;;;69.40;34.90;;;;;;;3.37;89.63;99931.69;213904;1323;22684;-73
2021/12/15 06:58:17;;;;;;;77.50;38.40;;;;;;;3.59;89.89;99936.71;214328;1317;24264;-74
2021/12/15 07:03:24;;;;;;;65.80;35.00;;;;;;;3.64;89.84;99942.77;214283;1316;22685;-73
2021/12/15 07:08:36;;;;;;;65.00;33.40;;;;;;;3.71;89.89;99949.45;214283;1316;23050;-74
2021/12/15 07:13:50;;;;;;;55.90;31.30;;;;;;;3.76;89.70;99949.30;214234;1315;22605;-75
2021/12/15 07:19:19;;;;;;;64.50;33.80;;;;;;;3.79;89.65;99953.47;214414;1315;22766;-73
2021/12/15 07:24:44;;;;;;;69.70;33.90;;;;;;;3.79;89.58;99957.55;213907;1315;23447;-75
2021/12/15 07:30:28;;;;;;;;;;;;;;;;;;;;;
2021/12/15 07:36:05;;;;;;;59.90;31.80;;;;;;;3.83;89.62;99960.62;214404;1319;22589;-77
2021/12/15 07:41:47;;;;;;;65.40;33.20;;;;;;;3.84;89.44;99958.09;214202;1315;24268;-75
2021/12/15 07:47:19;;;;;;;;;;;;;;;;;;;;;
2021/12/15 07:52:42;;;;;;;57.70;30.80;;;;;;;3.98;89.98;99980.10;214044;1316;27457;-74
2021/12/15 07:57:49;;;;;;;59.20;31.30;;;;;;;4.03;89.79;99990.42;213850;1315;25448;-73
2021/12/15 08:03:40;;;;;;;;;;;;;;;;;;;;;
2021/12/15 08:10:01;;;;;;;54.00;29.00;;;;;;;4.04;89.48;100008.60;214133;1315;23407;-75
2021/12/15 08:15:07;;;;;;;60.80;31.70;;;;;;;4.01;89.41;100009.66;214048;1316;22612;-76
2021/12/15 08:20:47;;;;;;;55.10;30.40;;;;;;;4.01;89.33;100005.69;214414;1316;24324;-75
2021/12/15 08:26:13;;;;;;;;;;;;;;;;;;;;;
2021/12/15 08:31:51;;;;;;;50.30;29.10;;;;;;;4.04;89.62;100013.06;213994;1318;22669;-75
2021/12/15 08:36:59;;;;;;;52.90;28.70;;;;;;;4.09;89.96;100016.41;213986;1316;22588;-74
2021/12/15 08:42:12;;;;;;;52.50;27.40;;;;;;;4.20;90.27;100017.83;214020;1316;25908;-75
2021/12/15 08:47:22;;;;;;;52.50;28.10;;;;;;;4.30;90.06;100021.80;214164;1318;22639;-75
2021/12/15 08:52:38;;;;;;;45.80;26.30;;;;;;;4.41;90.01;100027.96;214218;1316;22673;-74
2021/12/15 08:58:04;;;;;;;48.40;26.70;;;;;;;4.39;89.51;100039.36;213779;1316;25121;-74
2021/12/15 09:03:21;;;;;;;45.40;25.80;;;;;;;4.38;89.61;100045.08;214055;1316;22774;-75
2021/12/15 09:08:31;;;;;;;49.70;28.80;;;;;;;4.40;89.58;100052.59;213769;1318;22580;-75
2021/12/15 09:13:50;;;;;;;52.20;29.00;;;;;;;4.42;89.55;100041.59;214017;1315;22730;-76
2021/12/15 09:18:58;;;;;;;51.70;29.00;;;;;;;4.44;89.67;100030.05;214228;1316;22574;-76
2021/12/15 09:24:03;;;;;;;47.60;28.20;;;;;;;4.47;89.53;100028.69;214128;1316;22753;-74
2021/12/15 09:29:26;;;;;;;48.70;27.20;;;;;;;4.52;89.56;100031.79;213988;1316;25446;-75
2021/12/15 09:34:36;;;;;;;48.00;27.80;;;;;;;4.61;89.86;100038.05;214009;1316;22539;-75
2021/12/15 09:39:52;;;;;;;47.80;27.20;;;;;;;4.77;90.09;100035.48;213857;1316;24281;-71
2021/12/15 09:45:02;;;;;;;35.10;20.30;;;;;;;4.92;90.21;100029.50;213759;1316;22593;-70
2021/12/15 10:17:34;;;;;;;48.80;25.70;;;;;;;5.17;89.00;100025.23;213756;1315;24334;-71
2021/12/15 10:22:44;;;;;;;45.40;23.00;;;;;;;5.24;89.70;100024.66;213758;1316;24265;-71
2021/12/15 10:28:08;;;;;;;44.50;23.20;;;;;;;5.27;89.53;100016.74;213911;1316;22749;-70
2021/12/15 10:33:19;;;;;;;42.90;21.70;;;;;;;5.28;89.77;100008.71;213836;1316;23122;-70
2021/12/15 10:38:32;;;;;;;43.70;22.30;;;;;;;5.30;89.56;100013.10;213836;1316;22643;-69
2021/12/15 10:44:03;;;;;;;47.30;23.10;;;;;;;5.24;89.38;100003.45;213943;1316;22563;-71
2021/12/15 10:49:13;;;;;;;45.00;22.20;;;;;;;5.24;89.42;100001.90;214569;1318;23391;-71
2021/12/15 10:54:21;;;;;;;50.60;23.60;;;;;;;5.29;89.40;99990.42;214805;1318;22702;-71
2021/12/15 10:59:28;;;;;;;45.90;21.20;;;;;;;5.26;89.43;99989.04;214648;1316;22697;-70
2021/12/15 11:04:51;;;;;;;42.40;21.00;;;;;;;5.32;89.69;99986.11;213919;1316;22689;-71
2021/12/15 11:10:10;;;;;;;40.50;21.30;;;;;;;5.35;89.73;99977.15;214064;1316;23249;-70
2021/12/15 11:15:32;;;;;;;36.60;19.70;;;;;;;5.39;90.09;99979.23;213921;1316;23325;-70
2021/12/15 11:20:39;;;;;;;40.20;20.00;;;;;;;5.31;89.62;99980.66;214092;1316;23118;-70
2021/12/15 11:26:39;;;;;;;42.20;20.90;;;;;;;5.21;89.79;99963.05;213513;1319;22590;-70
2021/12/15 11:31:48;;;;;;;40.70;20.00;;;;;;;5.20;90.19;99965.73;212298;1316;24267;-69
2021/12/15 11:37:11;;;;;;;39.00;19.20;;;;;;;5.22;90.10;99970.65;212366;1317;25527;-70
2021/12/15 11:42:25;;;;;;;36.30;18.00;;;;;;;5.31;90.50;99969.43;212609;1316;25509;-70
2021/12/15 11:47:28;;;;;;;37.60;19.90;;;;;;;5.36;90.67;99961.75;212116;1316;22596;-70
2021/12/15 11:52:49;;;;;;;41.10;21.50;;;;;;;5.32;90.12;99952.94;213674;1318;22621;-70
2021/12/15 11:58:10;;;;;;;48.30;23.10;;;;;;;5.24;90.26;99949.21;212583;1318;22660;-70
2021/12/15 12:03:28;;;;;;;44.20;22.20;;;;;;;5.21;90.75;99954.77;212308;1318;22658;-70
2021/12/15 12:08:51;;;;;;;43.00;20.70;;;;;;;5.31;91.35;99952.38;212081;1321;22641;-70
2021/12/15 12:14:16;;;;;;;;;;;;;;;;;;;;;
2021/12/15 12:19:31;;;;;;;39.40;20.60;;;;;;;5.46;90.83;99940.95;212267;1316;22576;-71
2021/12/15 12:24:43;;;;;;;37.20;19.40;;;;;;;5.52;90.90;99941.10;213657;1316;22720;-71
2021/12/15 12:29:53;;;;;;;41.70;19.90;;;;;;;5.57;90.89;99942.59;214594;1316;22581;-70
2021/12/15 12:34:58;;;;;;;37.40;18.90;;;;;;;5.67;91.28;99933.54;214315;1316;22741;-71
2021/12/15 12:40:17;;;;;;;33.30;17.40;;;;;;;5.74;90.79;99930.69;213841;1316;23139;-71
2021/12/15 12:45:36;;;;;;;34.60;17.60;;;;;;;5.73;90.67;99940.08;214110;1315;22585;-69
2021/12/15 13:01:25;;;;;;;33.30;16.90;;;;;;;5.80;90.71;99928.92;212111;1315;24357;-69
2021/12/15 13:06:49;;;;;;;36.40;16.80;;;;;;;5.72;90.32;99939.89;212070;1315;22608;-70
2021/12/15 13:11:52;;;;;;;39.10;18.60;;;;;;;5.71;90.86;99950.71;211962;1316;24458;-70
2021/12/15 13:16:58;;;;;;;37.00;18.80;;;;;;;5.77;91.13;99955.92;212030;1315;22616;-70
2021/12/15 13:32:47;;;;;;;43.40;20.50;;;;;;;5.67;90.95;99975.98;213550;1316;22629;-71
2021/12/15 13:37:56;;;;;;;37.90;18.20;;;;;;;5.70;90.94;99977.22;212745;1313;443278;-71
2021/12/15 13:43:03;;;;;;;55.00;24.70;;;;;;;5.64;90.73;99977.45;214024;1318;22645;-71
2021/12/15 13:48:45;;;;;;;;;;;;;;;;;;;;;
2021/12/15 13:54:36;;;;;;;41.00;21.30;;;;;;;5.75;91.08;99975.97;213544;1315;22684;-70
2021/12/15 13:59:53;;;;;;;42.50;20.30;;;;;;;5.78;91.13;99974.45;213511;1316;24251;-70
2021/12/15 14:05:49;;;;;;;39.70;19.70;;;;;;;5.82;90.90;99970.63;213723;1315;22599;-70
2021/12/15 14:11:25;;;;;;;36.50;18.10;;;;;;;5.82;90.58;99960.73;211900;1315;22576;-70
2021/12/15 14:16:57;;;;;;;37.70;19.60;;;;;;;5.73;90.39;99955.65;211950;1316;25366;-70
2021/12/15 14:22:04;;;;;;;44.10;19.80;;;;;;;5.66;90.77;99959.44;212776;1316;25397;-70
2021/12/15 14:27:09;;;;;;;44.30;20.40;;;;;;;5.63;90.95;99967.21;212608;1318;25377;-70
2021/12/15 14:32:14;;;;;;;41.40;20.50;;;;;;;5.58;90.77;99973.41;213920;1317;25323;-70
2021/12/15 14:37:35;;;;;;;42.00;21.00;;;;;;;5.56;90.94;99977.43;213949;1316;23403;-70
2021/12/15 14:42:46;;;;;;;42.20;21.30;;;;;;;5.59;91.35;99981.81;213587;1321;22619;-69
2021/12/15 14:47:48;;;;;;;42.20;20.80;;;;;;;5.57;90.70;99979.92;212354;1316;22699;-70
2021/12/15 14:52:54;;;;;;;42.60;22.10;;;;;;;5.52;91.09;99985.59;213564;1316;24973;-70
2021/12/15 14:57:57;;;;;;;41.90;22.70;;;;;;;5.55;91.21;99985.36;212069;1318;25503;-70
2021/12/15 15:03:03;;;;;;;39.10;20.70;;;;;;;5.53;90.76;99990.86;211719;1316;22832;-69
2021/12/15 15:08:45;;;;;;;36.30;20.20;;;;;;;5.54;91.21;99995.73;212421;1316;25435;-70
2021/12/15 15:14:07;;;;;;;35.90;20.60;;;;;;;5.51;91.13;99993.54;212568;1325;23398;-71
2021/12/15 15:19:17;;;;;;;39.20;22.20;;;;;;;5.44;91.07;99998.54;213334;1318;22573;-70
2021/12/15 15:24:35;;;;;;;35.90;20.00;;;;;;;5.38;91.09;99995.67;212457;1324;22680;-69
2021/12/15 15:30:02;;;;;;;43.10;22.40;;;;;;;5.33;91.07;99997.61;212283;1324;25446;-70
2021/12/15 15:35:33;;;;;;;39.70;22.10;;;;;;;5.34;91.47;100003.05;212542;1324;22663;-71
2021/12/15 15:40:39;;;;;;;44.10;24.00;;;;;;;5.29;91.38;100003.64;212386;1325;22697;-71
2021/12/15 15:45:59;;;;;;;46.20;25.60;;;;;;;5.28;91.70;100008.97;212015;1325;22596;-70
2021/12/15 15:51:36;;;;;;;53.90;29.40;;;;;;;5.26;91.53;100009.48;211930;1325;25381;-70
2021/12/15 15:56:59;;;;;;;56.10;29.80;;;;;;;5.22;91.42;100014.39;212123;1323;22771;-70
2021/12/15 16:08:15;;;;;;;61.00;32.10;;;;;;;5.19;91.66;100022.73;212619;1324;24379;-70
2021/12/15 16:13:21;;;;;;;62.50;31.90;;;;;;;5.16;91.65;100025.20;212101;1325;25554;-68
2021/12/15 16:18:40;;;;;;;68.90;35.60;;;;;;;5.14;91.74;100026.25;212255;1322;24526;-69
2021/12/15 16:24:10;;;;;;;75.60;36.90;;;;;;;5.13;91.79;100025.55;213072;1322;22742;-69
2021/12/15 16:29:39;;;;;;;73.60;38.60;;;;;;;5.13;91.81;100024.09;212725;1320;22815;-69
2021/12/15 16:34:55;;;;;;;75.80;39.10;;;;;;;5.11;91.89;100026.96;212679;1323;25274;-69
2021/12/15 16:40:06;;;;;;;78.50;38.70;;;;;;;5.08;91.75;100025.92;212749;1323;23379;-69
2021/12/15 16:45:12;;;;;;;78.60;39.30;;;;;;;5.07;91.97;100021.34;212410;1316;22623;-70
2021/12/15 16:50:16;;;;;;;75.60;39.00;;;;;;;5.08;91.99;100021.52;212584;1324;25256;-70
2021/12/15 16:55:39;;;;;;;73.60;38.40;;;;;;;5.09;91.99;100014.73;212522;1323;25365;-68
2021/12/15 17:00:45;;;;;;;76.10;37.00;;;;;;;5.08;91.93;100015.83;212750;1322;25306;-70
2021/12/15 17:05:51;;;;;;;77.60;39.70;;;;;;;5.07;91.81;100016.77;212428;1323;25427;-70
2021/12/15 17:11:08;;;;;;;74.00;37.60;;;;;;;5.10;92.24;100016.73;213026;1322;25377;-70
2021/12/15 17:16:36;;;;;;;73.00;36.70;;;;;;;5.10;92.02;100012.70;212776;1322;25492;-69
2021/12/15 17:22:12;;;;;;;79.10;40.00;;;;;;;5.09;91.88;100010.08;212836;1323;25362;-70
2021/12/15 17:27:15;;;;;;;74.60;37.00;;;;;;;5.07;91.79;100006.91;212574;1319;22632;-69
2021/12/15 17:32:17;;;;;;;71.10;38.00;;;;;;;5.06;91.77;100010.23;212906;1322;24255;-70
2021/12/15 17:37:21;;;;;;;64.90;33.70;;;;;;;5.06;91.88;100012.20;212670;1323;25490;-70
2021/12/15 17:42:33;;;;;;;80.00;38.30;;;;;;;5.06;91.68;100006.10;212763;1323;22828;-70
2021/12/15 17:47:38;;;;;;;78.90;40.50;;;;;;;5.05;91.79;100005.34;213959;1320;22701;-70
2021/12/15 17:52:43;;;;;;;75.70;39.50;;;;;;;5.05;91.75;100011.43;212513;1322;24055;-70
2021/12/15 17:58:04;;;;;;;79.90;42.10;;;;;;;5.04;91.69;100015.23;212508;1319;24419;-71
2021/12/15 18:03:13;;;;;;;77.60;40.10;;;;;;;5.03;91.60;100019.86;212622;1323;24291;-71
2021/12/15 18:08:19;;;;;;;73.70;40.50;;;;;;;5.04;91.57;100019.52;212797;1319;24251;-70
2021/12/15 18:13:44;;;;;;;72.70;40.50;;;;;;;5.00;91.60;100025.16;212644;1322;25642;-70
2021/12/15 18:18:59;;;;;;;66.80;37.00;;;;;;;5.00;91.88;100019.80;212539;1322;24372;-70
2021/12/15 18:24:10;;;;;;;61.40;34.90;;;;;;;4.98;91.79;100016.49;212516;1323;24487;-69
2021/12/15 18:29:14;;;;;;;61.30;33.10;;;;;;;4.99;91.69;100015.67;212873;1323;22677;-70
2021/12/15 18:34:17;;;;;;;67.00;36.20;;;;;;;5.01;92.01;100022.84;213530;1323;22562;-70
2021/12/15 18:39:25;;;;;;;74.00;39.50;;;;;;;5.02;91.97;100017.06;213783;1323;22568;-71
2021/12/15 18:44:30;;;;;;;69.20;39.40;;;;;;;4.98;91.70;100013.95;214007;1323;24283;-68
2021/12/15 18:49:37;;;;;;;70.30;40.30;;;;;;;4.94;91.41;100014.05;214116;1323;24244;-70
2021/12/15 18:54:42;;;;;;;69.90;38.40;;;;;;;4.90;91.76;100015.27;212458;1322;24429;-70
2021/12/15 18:59:48;;;;;;;74.50;41.40;;;;;;;4.87;91.67;100008.15;213038;1323;24209;-70
2021/12/15 19:04:53;;;;;;;69.10;39.60;;;;;;;4.83;91.71;100002.35;212728;1323;22816;-70
2021/12/15 19:09:56;;;;;;;70.80;39.60;;;;;;;4.81;91.94;99999.90;213004;1323;25543;-70
2021/12/15 19:15:00;;;;;;;65.30;37.20;;;;;;;4.81;92.05;100004.52;212807;1323;24250;-69
2021/12/15 19:20:31;;;;;;;65.00;38.50;;;;;;;4.82;91.93;100010.55;212787;1322;24153;-69
2021/12/15 19:25:50;;;;;;;66.20;38.90;;;;;;;4.84;91.91;100018.05;212750;1323;22542;-71
2021/12/15 19:31:29;;;;;;;65.00;38.40;;;;;;;4.94;92.49;100028.45;212969;1323;22604;-69
2021/12/15 19:36:36;;;;;;;63.90;35.30;;;;;;;5.06;92.78;100022.33;213515;1323;23433;-71
2021/12/15 19:41:42;;;;;;;63.00;37.20;;;;;;;5.11;92.11;100022.27;212611;1323;25514;-71
2021/12/15 19:46:55;;;;;;;60.70;35.60;;;;;;;5.10;91.54;100023.42;212753;1317;24168;-70
2021/12/15 19:52:00;;;;;;;56.20;34.60;;;;;;;5.05;91.57;100017.34;212730;1322;25339;-70
2021/12/15 19:57:04;;;;;;;61.50;34.10;;;;;;;5.00;91.28;100025.20;212228;1324;25268;-70
2021/12/15 20:02:21;;;;;;;54.70;32.70;;;;;;;4.98;91.60;100025.14;212303;1323;25473;-69
2021/12/15 20:07:25;;;;;;;63.30;37.80;;;;;;;4.92;91.54;100010.25;212698;1323;25232;-70
2021/12/15 20:12:34;;;;;;;69.40;40.70;;;;;;;4.80;91.35;100011.52;212425;1324;25372;-71
2021/12/15 20:17:37;;;;;;;68.80;41.70;;;;;;;4.76;91.74;100021.54;213402;1324;27440;-70
2021/12/15 20:22:42;;;;;;;71.50;40.70;;;;;;;4.78;91.87;100026.41;213379;1324;25329;-70
2021/12/15 20:27:45;;;;;;;69.60;39.90;;;;;;;4.79;91.81;100029.42;213276;1325;24654;-71
2021/12/15 20:32:49;;;;;;;74.60;40.10;;;;;;;4.85;92.00;100027.77;212241;1325;22646;-71
2021/12/15 20:37:52;;;;;;;75.50;41.30;;;;;;;4.87;91.91;100028.33;212614;1325;22605;-71
2021/12/15 20:42:55;;;;;;;88.90;48.40;;;;;;;4.89;92.07;100028.46;212565;1325;25303;-71
2021/12/15 20:47:58;;;;;;;92.90;50.10;;;;;;;4.88;91.67;100028.27;213383;1323;22705;-70
2021/12/15 20:53:06;;;;;;;100.50;55.00;;;;;;;4.85;91.64;100036.07;213346;1324;22590;-70
2021/12/15 20:58:20;;;;;;;105.70;56.00;;;;;;;4.83;91.55;100038.45;212513;1325;24373;-70
2021/12/15 21:03:59;;;;;;;110.90;57.80;;;;;;;4.81;91.50;100040.69;212743;1325;22599;-69
2021/12/15 21:09:25;;;;;;;107.10;56.50;;;;;;;4.82;91.58;100050.19;212185;1324;22628;-70
2021/12/15 21:14:56;;;;;;;104.00;53.20;;;;;;;4.91;92.00;100057.54;212168;1325;22673;-71
2021/12/15 21:20:28;;;;;;;86.40;48.30;;;;;;;4.95;91.60;100062.77;212706;1319;24444;-70
2021/12/15 21:25:45;;;;;;;;;;;;;;;;;;;;;
2021/12/15 21:30:51;;;;;;;83.50;45.10;;;;;;;4.99;91.58;100053.59;213549;1323;22576;-71
2021/12/15 21:35:53;;;;;;;83.30;42.90;;;;;;;4.95;91.44;100053.73;206255;1323;10374924;-69
2021/12/15 21:40:56;;;;;;;77.40;42.80;;;;;;;4.93;91.38;100054.36;212662;1323;24840;-70
2021/12/15 21:46:07;;;;;;;78.90;42.80;;;;;;;4.90;91.15;100047.02;212645;1316;24454;-70
2021/12/15 21:51:13;;;;;;;82.20;45.30;;;;;;;4.89;91.54;100049.30;212746;1323;24263;-70
2021/12/15 21:56:17;;;;;;;80.30;44.60;;;;;;;4.86;91.48;100051.29;213073;1321;24244;-70
2021/12/15 22:01:20;;;;;;;87.20;46.70;;;;;;;4.81;91.52;100052.11;213377;1322;25005;-70
2021/12/15 22:06:33;;;;;;;85.60;44.40;;;;;;;4.78;91.68;100048.79;213569;1323;24475;-70
2021/12/15 22:11:37;;;;;;;73.80;40.50;;;;;;;4.77;91.69;100038.05;213625;1323;24335;-70
2021/12/15 22:16:43;;;;;;;79.40;43.20;;;;;;;4.77;91.87;100034.46;213746;1323;25403;-70
2021/12/15 22:21:51;;;;;;;79.30;43.40;;;;;;;4.73;91.53;100029.40;213537;1323;25678;-70
2021/12/15 22:26:57;;;;;;;80.40;43.20;;;;;;;4.73;91.75;100018.40;212743;1323;25467;-70
2021/12/15 22:32:07;;;;;;;76.20;41.70;;;;;;;4.77;91.75;100010.90;212361;1323;24307;-69
2021/12/15 22:37:10;;;;;;;78.10;42.10;;;;;;;4.80;91.87;100008.59;212666;1323;24304;-70
2021/12/15 22:42:17;;;;;;;73.50;40.40;;;;;;;4.79;91.54;100006.23;212540;1323;24442;-71
2021/12/15 22:47:19;;;;;;;73.40;40.20;;;;;;;4.75;91.56;100006.59;212499;1323;24464;-70
2021/12/15 22:52:33;;;;;;;;;;;;;;;;;;;;;
2021/12/15 22:57:39;;;;;;;67.90;39.10;;;;;;;4.72;91.48;100014.84;212527;1323;24349;-70
2021/12/15 23:03:17;;;;;;;;;;;;;;;4.77;91.74;100016.73;212490;1320;24103;-71
2021/12/15 23:08:23;;;;;;;65.70;34.90;;;;;;;4.84;91.92;100023.61;212380;1323;26561;-70
2021/12/15 23:13:31;;;;;;;61.60;35.10;;;;;;;4.87;91.95;100028.77;212759;1323;22940;-70
2021/12/15 23:24:15;;;;;;;62.70;35.00;;;;;;;4.96;91.62;100029.60;212644;1323;22671;-70
2021/12/15 23:29:29;;;;;;;62.80;36.40;;;;;;;4.92;91.34;100026.48;212322;1325;22593;-69
2021/12/15 23:34:33;;;;;;;63.20;34.40;;;;;;;4.89;91.44;100027.00;212938;1323;25370;-69
